Juan Diego — 5BEC4 — position and weather

sailwx.info

Track history (hours):
 
Tides and Currents Weather Stations Pressure Air Temp Water Temp Dewpoint Dewpoint Depression Visibility Wind Speed Wind Dir Waves Ship Positions

Juan Diego

Last reported at 2017-Nov-24 23:01 UTC. Time now 2018-Jan-20 16:48 UTC.
Position N 29°24' W 094°49'.
Warning: this ship's position is 56 days out of date.

Length 100 m; draft 5.7 m.

Type: Cargo ship. MMSI: 212370000.

Date/timePositionNaut miles runAvg speedWind from/ knotsBaromVisibWave heightAir tempDewpointWater temp
2017-Nov-24 23:01N 29°24' W 094°49'112.4
2017-Nov-24 22:55N 29°25' W 094°49'512.5
2017-Nov-24 22:30N 29°30' W 094°52'612.3
2017-Nov-24 22:00N 29°35' W 094°56'612.2
2017-Nov-24 21:30N 29°40' W 094°59'5 9.2
2017-Nov-24 21:00N 29°44' W 095°02'4 7.6
2017-Nov-24 20:30N 29°45' W 095°06'0 0.0
2017-Nov-24 11:43N 29°45' W 095°07'1 2.2
2017-Nov-24 11:29N 29°45' W 095°06'4 6.4
2017-Nov-24 10:54N 29°44' W 095°02'410.1
2017-Nov-24 10:30N 29°41' W 094°59'612.1
2017-Nov-24 10:00N 29°35' W 094°56'713.4
2017-Nov-24 09:30N 29°30' W 094°52'  
Track history (hours):
 
Tides and Currents Weather Stations Pressure Air Temp Water Temp Dewpoint Dewpoint Depression Visibility Wind Speed Wind Dir Waves Ship Positions

Juan Diego

Last reported at 2017-Nov-24 23:01 UTC. Time now 2018-Jan-20 16:48 UTC.
Position N 29°24' W 094°49'.
Warning: this ship's position is 56 days out of date.

Length 100 m; draft 5.7 m.

Type: Cargo ship. MMSI: 212370000.

Date/timePositionNaut miles runAvg speedWind from/ knotsBaromVisibWave heightAir tempDewpointWater temp
2017-Nov-24 23:01N 29°24' W 094°49'112.4
2017-Nov-24 22:55N 29°25' W 094°49'512.5
2017-Nov-24 22:30N 29°30' W 094°52'612.3
2017-Nov-24 22:00N 29°35' W 094°56'612.2
2017-Nov-24 21:30N 29°40' W 094°59'5 9.2
2017-Nov-24 21:00N 29°44' W 095°02'4 7.6
2017-Nov-24 20:30N 29°45' W 095°06'0 0.0
2017-Nov-24 11:43N 29°45' W 095°07'1 2.2
2017-Nov-24 11:29N 29°45' W 095°06'4 6.4
2017-Nov-24 10:54N 29°44' W 095°02'410.1
2017-Nov-24 10:30N 29°41' W 094°59'612.1
2017-Nov-24 10:00N 29°35' W 094°56'713.4
2017-Nov-24 09:30N 29°30' W 094°52'  

Dump ship's entire track history